createdAt,value
2022-12-31T00:01:37.135Z,10.43
2022-12-31T00:04:05.594Z,7.07
2022-12-31T00:06:36.056Z,13.75
2022-12-31T00:09:08.146Z,16.20
2022-12-31T00:11:37.641Z,15.77
2022-12-31T00:14:06.566Z,9.07
2022-12-31T00:16:37.106Z,10.00
2022-12-31T00:19:07.143Z,12.40
2022-12-31T00:21:35.929Z,20.17
2022-12-31T00:24:06.630Z,23.67
2022-12-31T00:26:38.592Z,16.88
2022-12-31T00:29:07.383Z,20.23
2022-12-31T00:31:37.505Z,17.27
2022-12-31T00:34:06.416Z,16.08
2022-12-31T00:36:36.471Z,15.80
2022-12-31T00:39:08.382Z,15.02
2022-12-31T00:41:36.861Z,13.90
2022-12-31T00:44:05.659Z,17.10
2022-12-31T00:49:01.982Z,13.00
2022-12-31T00:51:30.728Z,14.65
2022-12-31T00:53:59.601Z,16.75
2022-12-31T00:56:30.631Z,14.07
2022-12-31T00:58:59.536Z,17.23
2022-12-31T01:01:30.023Z,13.50
2022-12-31T01:04:00.686Z,16.97
2022-12-31T01:06:28.962Z,21.00
2022-12-31T01:08:57.091Z,17.30
2022-12-31T01:11:29.496Z,14.00
2022-12-31T01:14:01.726Z,16.25
2022-12-31T01:16:33.706Z,15.85
2022-12-31T01:19:04.724Z,18.70
2022-12-31T01:21:34.083Z,19.17
2022-12-31T01:24:02.272Z,15.68
2022-12-31T01:26:31.251Z,21.10
2022-12-31T01:29:01.021Z,16.80
2022-12-31T01:31:29.365Z,20.10
2022-12-31T01:33:59.109Z,14.05
2022-12-31T01:36:29.012Z,13.57
2022-12-31T01:38:59.137Z,13.73
2022-12-31T01:41:30.230Z,16.13
2022-12-31T01:44:01.761Z,10.65
2022-12-31T01:49:07.883Z,15.65
2022-12-31T01:51:36.621Z,13.40
2022-12-31T01:54:07.764Z,10.30
2022-12-31T01:56:37.092Z,14.95
2022-12-31T01:59:09.723Z,20.67
2022-12-31T02:01:39.147Z,15.55
2022-12-31T02:04:11.025Z,8.50
2022-12-31T02:06:44.152Z,14.40
2022-12-31T02:09:14.111Z,12.68
2022-12-31T02:11:42.212Z,18.83
2022-12-31T02:14:15.155Z,14.23
2022-12-31T02:16:50.968Z,15.60
2022-12-31T02:19:46.605Z,11.90
2022-12-31T02:22:30.198Z,17.05
2022-12-31T02:25:29.142Z,11.60
2022-12-31T02:28:10.403Z,14.70
2022-12-31T02:30:42.043Z,14.57
2022-12-31T02:33:15.623Z,14.82
2022-12-31T02:35:50.270Z,11.20
2022-12-31T02:38:26.579Z,16.52
2022-12-31T02:40:55.801Z,13.93
2022-12-31T02:43:24.738Z,16.38
2022-12-31T02:46:09.647Z,18.13
2022-12-31T02:48:44.243Z,16.77
2022-12-31T02:51:34.425Z,13.40
2022-12-31T02:54:19.389Z,13.25
2022-12-31T02:56:56.047Z,21.27
2022-12-31T02:59:56.483Z,15.55
2022-12-31T03:02:31.563Z,10.23
2022-12-31T03:05:02.994Z,16.25
2022-12-31T03:07:33.378Z,14.77
2022-12-31T03:10:02.341Z,12.75
2022-12-31T03:12:46.948Z,9.07
2022-12-31T03:15:21.154Z,13.48
2022-12-31T03:17:53.792Z,15.77
2022-12-31T03:20:41.382Z,9.35
2022-12-31T03:23:15.232Z,11.85
2022-12-31T03:25:43.520Z,12.10
2022-12-31T03:28:13.781Z,10.10
2022-12-31T03:30:44.316Z,10.85
2022-12-31T03:33:14.426Z,10.73
2022-12-31T03:35:47.016Z,9.68
2022-12-31T03:38:15.343Z,12.55
2022-12-31T03:40:45.657Z,7.18
2022-12-31T03:43:13.896Z,9.43
2022-12-31T03:45:42.298Z,10.40
2022-12-31T03:48:11.120Z,11.43
2022-12-31T03:50:40.776Z,7.95
2022-12-31T03:53:09.133Z,14.68
2022-12-31T03:55:37.349Z,13.13
2022-12-31T03:58:06.068Z,11.23
2022-12-31T04:00:34.478Z,11.23
2022-12-31T04:03:02.689Z,10.40
2022-12-31T04:05:31.382Z,8.65
2022-12-31T04:08:00.882Z,10.55
2022-12-31T04:10:28.997Z,7.40
2022-12-31T04:12:57.248Z,16.95
2022-12-31T04:15:25.324Z,14.32
2022-12-31T04:17:53.507Z,15.93
2022-12-31T04:20:21.595Z,9.20
2022-12-31T04:22:50.175Z,12.00
2022-12-31T04:25:19.817Z,9.00
2022-12-31T04:27:48.308Z,10.88
2022-12-31T04:30:16.934Z,10.15
2022-12-31T04:32:45.056Z,9.90
2022-12-31T04:35:13.584Z,7.70
2022-12-31T04:37:41.879Z,7.65
2022-12-31T04:40:10.843Z,11.95
2022-12-31T04:42:40.443Z,17.50
2022-12-31T04:45:09.631Z,13.65
2022-12-31T04:47:37.811Z,17.63
2022-12-31T04:50:06.825Z,11.70
2022-12-31T04:52:42.105Z,9.75
2022-12-31T04:55:11.128Z,13.35
2022-12-31T04:57:42.065Z,12.00
2022-12-31T05:00:11.319Z,7.45
2022-12-31T05:02:39.791Z,9.93
2022-12-31T05:05:08.601Z,13.43
2022-12-31T05:07:36.808Z,8.98
2022-12-31T05:10:05.982Z,14.82
2022-12-31T05:12:34.209Z,18.15
2022-12-31T05:15:03.822Z,11.85
2022-12-31T05:17:31.967Z,14.65
2022-12-31T05:20:00.238Z,16.23
2022-12-31T05:22:31.242Z,17.00
2022-12-31T05:25:00.406Z,7.95
2022-12-31T05:27:31.336Z,10.05
2022-12-31T05:30:00.055Z,15.85
2022-12-31T05:32:29.620Z,14.43
2022-12-31T05:34:58.397Z,20.77
2022-12-31T05:37:26.815Z,17.98
2022-12-31T05:39:55.020Z,9.63
2022-12-31T05:42:23.804Z,13.57
2022-12-31T05:44:52.090Z,7.97
2022-12-31T05:47:20.421Z,10.15
2022-12-31T05:49:50.174Z,10.23
2022-12-31T05:52:18.518Z,6.45
2022-12-31T05:54:46.780Z,13.30
2022-12-31T05:57:15.306Z,9.70
2022-12-31T05:59:43.470Z,13.35
2022-12-31T06:02:11.631Z,9.88
2022-12-31T06:04:39.780Z,5.30
2022-12-31T06:07:09.380Z,14.70
2022-12-31T06:09:37.548Z,7.57
2022-12-31T06:12:06.562Z,13.73
2022-12-31T06:14:35.039Z,10.93
2022-12-31T06:17:03.360Z,13.88
2022-12-31T06:19:31.628Z,8.60
2022-12-31T06:22:00.111Z,11.65
2022-12-31T06:24:29.640Z,8.27
2022-12-31T06:26:57.774Z,15.23
2022-12-31T06:29:25.947Z,8.43
2022-12-31T06:31:54.081Z,14.13
2022-12-31T06:34:22.166Z,8.95
2022-12-31T06:36:50.336Z,10.32
2022-12-31T06:39:18.578Z,11.43
2022-12-31T06:41:48.157Z,15.52
2022-12-31T06:44:16.588Z,15.65
2022-12-31T06:46:45.977Z,11.35
2022-12-31T06:49:14.301Z,12.27
2022-12-31T06:51:42.511Z,13.85
2022-12-31T06:54:10.642Z,9.50
2022-12-31T06:56:39.365Z,11.77
2022-12-31T06:59:24.417Z,12.73
2022-12-31T07:02:06.349Z,8.50
2022-12-31T07:05:10.194Z,6.38
2022-12-31T07:07:49.726Z,10.02
2022-12-31T07:10:29.844Z,7.03
2022-12-31T07:13:27.831Z,3.88
2022-12-31T07:16:18.902Z,9.07
2022-12-31T07:18:52.597Z,4.45
2022-12-31T07:21:31.944Z,4.20
2022-12-31T07:24:00.771Z,3.97
2022-12-31T07:26:47.749Z,6.85
2022-12-31T07:29:26.460Z,5.53
2022-12-31T07:32:07.351Z,7.25
2022-12-31T07:34:48.258Z,7.45
2022-12-31T07:37:29.360Z,6.53
2022-12-31T07:40:07.223Z,6.25
2022-12-31T07:42:45.567Z,9.10
2022-12-31T07:45:21.825Z,4.20
2022-12-31T07:47:53.575Z,8.00
2022-12-31T07:50:25.049Z,8.05
2022-12-31T07:52:53.849Z,7.45
2022-12-31T07:55:22.047Z,9.63
2022-12-31T07:57:58.776Z,12.85
2022-12-31T08:00:28.536Z,10.43
2022-12-31T08:03:15.080Z,6.35
2022-12-31T08:05:51.959Z,12.50
2022-12-31T08:08:35.826Z,11.05
2022-12-31T08:11:15.411Z,17.92
2022-12-31T08:13:44.286Z,15.32
2022-12-31T08:16:13.824Z,17.20
2022-12-31T08:18:44.253Z,14.15
2022-12-31T08:21:34.562Z,21.45
2022-12-31T08:24:15.409Z,27.50
2022-12-31T08:26:53.612Z,30.30
2022-12-31T08:29:35.662Z,37.05
2022-12-31T08:32:14.036Z,32.70
2022-12-31T08:34:51.980Z,24.65
2022-12-31T08:37:31.461Z,31.63
2022-12-31T08:40:14.237Z,20.58
2022-12-31T08:42:53.331Z,31.63
2022-12-31T08:45:30.206Z,33.92
2022-12-31T08:48:04.372Z,20.67
2022-12-31T08:50:34.941Z,33.75
2022-12-31T08:53:03.609Z,16.67
2022-12-31T08:55:32.343Z,19.60
2022-12-31T08:58:14.804Z,24.73
2022-12-31T09:00:43.813Z,38.58
2022-12-31T09:03:24.640Z,28.13
2022-12-31T09:06:02.736Z,31.07
2022-12-31T09:08:38.482Z,40.60
2022-12-31T09:11:19.203Z,29.83
2022-12-31T09:14:19.373Z,33.20
2022-12-31T09:16:56.843Z,24.60
2022-12-31T09:19:25.135Z,22.88
2022-12-31T09:21:55.775Z,26.10
2022-12-31T09:24:24.395Z,25.43
2022-12-31T09:27:02.684Z,20.42
2022-12-31T09:29:45.200Z,22.95
2022-12-31T09:32:22.523Z,14.52
2022-12-31T09:34:57.738Z,15.93
2022-12-31T09:37:39.590Z,16.92
2022-12-31T09:40:31.551Z,20.05
2022-12-31T09:43:26.400Z,10.02
2022-12-31T09:46:25.508Z,8.45
2022-12-31T09:49:23.537Z,6.45
2022-12-31T09:52:05.154Z,7.88
2022-12-31T09:57:39.383Z,4.57
2022-12-31T10:00:14.327Z,5.40
2022-12-31T10:03:08.506Z,6.10
2022-12-31T10:05:51.671Z,7.65
2022-12-31T10:08:39.661Z,3.50
2022-12-31T10:11:20.354Z,8.35
2022-12-31T10:14:09.521Z,3.33
2022-12-31T10:16:54.369Z,5.60
2022-12-31T10:19:54.304Z,6.68
2022-12-31T10:22:58.781Z,7.03
2022-12-31T10:25:47.851Z,2.95
2022-12-31T10:28:31.429Z,5.80
2022-12-31T10:31:14.203Z,6.55
2022-12-31T10:33:51.139Z,7.25
2022-12-31T10:36:22.835Z,2.45
2022-12-31T10:39:14.509Z,2.75
2022-12-31T10:42:53.394Z,5.35
2022-12-31T10:46:00.213Z,3.42
2022-12-31T10:48:53.992Z,6.25
2022-12-31T10:52:07.983Z,5.55
2022-12-31T10:55:09.409Z,4.60
2022-12-31T10:58:08.659Z,3.67
2022-12-31T11:00:45.853Z,3.05
2022-12-31T11:03:49.128Z,7.55
2022-12-31T11:06:54.317Z,2.50
2022-12-31T11:10:15.854Z,2.90
2022-12-31T11:13:16.356Z,3.15
2022-12-31T11:16:09.607Z,4.53
2022-12-31T11:18:51.826Z,4.78
2022-12-31T11:21:41.384Z,9.07
2022-12-31T11:24:26.036Z,6.25
2022-12-31T11:27:11.995Z,7.43
2022-12-31T11:29:58.482Z,3.13
2022-12-31T11:32:37.508Z,1.85
2022-12-31T11:35:22.286Z,1.63
2022-12-31T11:37:52.877Z,3.13
2022-12-31T11:40:42.794Z,2.05
2022-12-31T11:43:24.299Z,2.38
2022-12-31T11:46:11.189Z,1.88
2022-12-31T11:48:48.351Z,0.90
2022-12-31T11:51:43.085Z,2.97
2022-12-31T11:54:36.325Z,4.75
2022-12-31T11:57:13.667Z,0.85
2022-12-31T11:59:41.890Z,2.10
2022-12-31T12:02:24.718Z,2.70
2022-12-31T12:04:54.019Z,2.53
2022-12-31T12:07:25.326Z,1.23
2022-12-31T12:09:55.883Z,4.88
2022-12-31T12:12:24.151Z,6.25
2022-12-31T12:14:55.689Z,2.95
2022-12-31T12:20:04.078Z,2.25
2022-12-31T12:22:33.732Z,5.43
2022-12-31T12:25:06.010Z,2.83
2022-12-31T12:27:36.948Z,3.28
2022-12-31T12:30:12.813Z,3.67
2022-12-31T12:32:41.199Z,4.88
2022-12-31T12:35:17.492Z,7.50
2022-12-31T12:37:47.024Z,5.40
2022-12-31T12:40:33.090Z,3.25
2022-12-31T12:43:03.874Z,4.20
2022-12-31T12:45:46.366Z,4.43
2022-12-31T12:48:23.306Z,11.20
2022-12-31T12:50:51.533Z,7.53
2022-12-31T12:53:44.410Z,4.22
2022-12-31T12:56:24.855Z,9.25
2022-12-31T12:59:08.236Z,36.38
2022-12-31T13:01:45.607Z,8.73
2022-12-31T13:04:37.099Z,12.10
2022-12-31T13:07:17.968Z,24.33
2022-12-31T13:10:07.201Z,9.45
2022-12-31T13:13:13.683Z,8.85
2022-12-31T13:15:34.806Z,12.90
2022-12-31T13:18:14.303Z,11.10
2022-12-31T13:20:48.289Z,14.63
2022-12-31T13:23:24.469Z,28.48
2022-12-31T13:26:05.562Z,17.17
2022-12-31T13:28:35.409Z,12.27
2022-12-31T13:31:09.177Z,8.57
2022-12-31T13:33:42.914Z,17.08
2022-12-31T13:36:16.520Z,16.17
2022-12-31T13:38:47.376Z,16.35
2022-12-31T13:41:22.460Z,19.58
2022-12-31T13:43:58.180Z,20.73
2022-12-31T13:46:38.318Z,13.75
2022-12-31T13:49:23.235Z,16.27
2022-12-31T13:51:54.728Z,13.18
2022-12-31T13:54:35.873Z,12.52
2022-12-31T13:57:12.791Z,22.58
2022-12-31T13:59:47.505Z,15.15
2022-12-31T14:02:33.647Z,19.35
2022-12-31T14:05:07.765Z,25.05
2022-12-31T14:07:45.604Z,22.63
2022-12-31T14:10:15.222Z,23.67
2022-12-31T14:12:52.284Z,22.70
2022-12-31T14:15:25.492Z,20.67
2022-12-31T14:18:02.829Z,20.55
2022-12-31T14:20:43.366Z,11.48
2022-12-31T14:23:19.182Z,22.85
2022-12-31T14:25:51.059Z,17.17
2022-12-31T14:28:25.282Z,18.58
2022-12-31T14:30:59.963Z,20.67
2022-12-31T14:33:41.182Z,15.27
2022-12-31T14:36:27.029Z,18.33
2022-12-31T14:39:08.495Z,18.42
2022-12-31T14:41:46.830Z,20.15
2022-12-31T14:44:33.080Z,18.05
2022-12-31T14:47:14.011Z,22.15
2022-12-31T14:49:54.512Z,15.70
2022-12-31T14:52:25.726Z,16.55
2022-12-31T14:55:22.251Z,14.73
2022-12-31T15:00:41.241Z,18.20
2022-12-31T15:03:25.998Z,13.55
2022-12-31T15:06:00.713Z,33.20
2022-12-31T15:08:44.037Z,22.98
2022-12-31T15:11:34.860Z,17.90
2022-12-31T15:14:37.589Z,19.10
2022-12-31T15:17:17.504Z,16.88
2022-12-31T15:20:21.053Z,17.55
2022-12-31T15:22:51.174Z,17.38
2022-12-31T15:25:28.727Z,17.75
2022-12-31T15:27:58.999Z,16.65
2022-12-31T15:30:49.350Z,20.08
2022-12-31T15:33:25.031Z,17.48
2022-12-31T15:35:55.733Z,19.67
2022-12-31T15:38:36.272Z,15.55
2022-12-31T15:41:16.494Z,18.45
2022-12-31T15:43:49.632Z,14.07
2022-12-31T15:46:20.632Z,13.27
2022-12-31T15:48:56.541Z,12.27
2022-12-31T15:51:31.057Z,19.52
2022-12-31T15:54:01.142Z,27.08
2022-12-31T15:56:35.681Z,20.52
2022-12-31T15:59:06.580Z,25.88
2022-12-31T16:01:37.342Z,21.75
2022-12-31T16:04:15.537Z,11.75
2022-12-31T16:06:48.954Z,22.15
2022-12-31T16:09:22.862Z,24.17
2022-12-31T16:11:51.999Z,14.80
2022-12-31T16:14:25.070Z,17.85
2022-12-31T16:16:56.263Z,21.92
2022-12-31T16:19:36.860Z,19.73
2022-12-31T16:22:13.274Z,28.15
2022-12-31T16:25:02.691Z,17.63
2022-12-31T16:27:31.454Z,16.70
2022-12-31T16:30:02.197Z,21.95
2022-12-31T16:32:36.506Z,16.30
2022-12-31T16:35:26.355Z,17.40
2022-12-31T16:38:12.952Z,24.23
2022-12-31T16:40:42.755Z,17.02
2022-12-31T16:43:28.269Z,26.90
2022-12-31T16:45:59.277Z,20.50
2022-12-31T16:48:27.846Z,24.77
2022-12-31T16:50:58.085Z,42.03
2022-12-31T16:53:29.990Z,35.58
2022-12-31T16:56:02.848Z,29.25
2022-12-31T16:58:34.238Z,24.52
2022-12-31T17:03:41.653Z,22.30
2022-12-31T17:06:16.922Z,15.68
2022-12-31T17:08:47.213Z,20.90
2022-12-31T17:11:25.471Z,26.52
2022-12-31T17:13:58.713Z,26.00
2022-12-31T17:16:27.460Z,30.48
2022-12-31T17:18:55.835Z,25.73
2022-12-31T17:21:28.604Z,30.77
2022-12-31T17:24:01.642Z,40.95
2022-12-31T17:26:32.322Z,50.33
2022-12-31T17:29:02.696Z,36.75
2022-12-31T17:31:33.992Z,34.42
2022-12-31T17:37:02.609Z,23.83
2022-12-31T17:39:44.811Z,19.27
2022-12-31T17:42:14.939Z,18.50
2022-12-31T17:44:44.907Z,19.00
2022-12-31T17:47:15.027Z,27.63
2022-12-31T17:49:46.189Z,29.05
2022-12-31T17:52:17.248Z,25.30
2022-12-31T17:54:45.395Z,25.02
2022-12-31T17:57:26.943Z,26.38
2022-12-31T18:02:23.486Z,31.83
2022-12-31T18:04:53.156Z,37.58
2022-12-31T18:07:22.642Z,34.05
2022-12-31T18:09:50.813Z,44.08
2022-12-31T18:12:19.340Z,37.25
2022-12-31T18:14:47.523Z,28.20
2022-12-31T18:17:16.923Z,24.55
2022-12-31T18:20:04.258Z,23.42
2022-12-31T18:22:35.372Z,30.65
2022-12-31T18:25:04.428Z,22.15
2022-12-31T18:27:34.080Z,21.58
2022-12-31T18:30:05.346Z,20.27
2022-12-31T18:32:36.841Z,18.10
2022-12-31T18:35:05.897Z,16.67
2022-12-31T18:37:36.521Z,18.42
2022-12-31T18:40:05.020Z,20.73
2022-12-31T18:42:33.664Z,21.17
2022-12-31T18:45:01.842Z,25.83
2022-12-31T18:47:35.808Z,24.55
2022-12-31T18:50:06.714Z,26.67
2022-12-31T18:52:36.176Z,27.15
2022-12-31T18:55:20.994Z,45.45
2022-12-31T18:57:49.129Z,28.85
2022-12-31T19:00:18.033Z,35.78
2022-12-31T19:02:46.286Z,24.63
2022-12-31T19:05:25.408Z,31.27
2022-12-31T19:07:55.489Z,37.13
2022-12-31T19:10:24.188Z,39.83
2022-12-31T19:12:52.455Z,32.50
2022-12-31T19:15:28.188Z,30.60
2022-12-31T19:17:56.514Z,34.80
2022-12-31T19:20:25.120Z,30.67
2022-12-31T19:22:54.586Z,32.53
2022-12-31T19:25:24.922Z,30.52
2022-12-31T19:27:53.838Z,49.63
2022-12-31T19:30:25.541Z,29.83
2022-12-31T19:32:54.446Z,26.98
2022-12-31T19:35:23.986Z,27.85
2022-12-31T19:37:55.328Z,28.27
2022-12-31T19:40:26.160Z,33.38
2022-12-31T19:42:56.094Z,32.58
2022-12-31T19:45:26.354Z,29.85
2022-12-31T19:47:56.105Z,33.65
2022-12-31T19:50:27.157Z,49.95
2022-12-31T19:52:59.240Z,43.13
2022-12-31T19:55:27.761Z,36.80
2022-12-31T19:57:55.914Z,42.22
2022-12-31T20:00:24.115Z,39.03
2022-12-31T20:02:52.277Z,33.75
2022-12-31T20:05:20.562Z,35.60
2022-12-31T20:07:48.802Z,40.50
2022-12-31T20:10:18.485Z,40.97
2022-12-31T20:12:46.697Z,36.83
2022-12-31T20:15:14.907Z,39.20
2022-12-31T20:17:43.045Z,42.13
2022-12-31T20:20:11.969Z,42.13
2022-12-31T20:22:40.038Z,46.53
2022-12-31T20:25:08.795Z,50.58
2022-12-31T20:27:38.589Z,54.45
2022-12-31T20:30:09.802Z,46.47
2022-12-31T20:32:38.003Z,50.72
2022-12-31T20:35:07.360Z,50.50
2022-12-31T20:37:35.613Z,49.58
2022-12-31T20:40:03.737Z,58.05
2022-12-31T20:42:31.858Z,55.05
2022-12-31T20:45:01.295Z,50.17
2022-12-31T20:47:29.520Z,59.78
2022-12-31T20:50:13.097Z,62.80
2022-12-31T20:52:41.246Z,69.85
2022-12-31T20:55:10.921Z,56.25
2022-12-31T20:57:39.091Z,49.17
2022-12-31T21:00:10.676Z,49.95
2022-12-31T21:05:12.820Z,26.40
2022-12-31T21:07:41.109Z,32.92
2022-12-31T21:10:10.063Z,30.10
2022-12-31T21:12:48.080Z,37.03
2022-12-31T21:15:17.622Z,40.70
2022-12-31T21:17:45.716Z,51.22
2022-12-31T21:20:14.122Z,48.00
2022-12-31T21:22:42.418Z,43.72
2022-12-31T21:25:11.891Z,38.50
2022-12-31T21:27:40.069Z,41.55
2022-12-31T21:30:19.072Z,46.42
2022-12-31T21:32:49.035Z,45.95
2022-12-31T21:38:06.908Z,46.40
2022-12-31T21:40:35.303Z,48.03
2022-12-31T21:43:03.407Z,48.55
2022-12-31T21:45:31.665Z,40.33
2022-12-31T21:48:18.321Z,39.80
2022-12-31T21:50:48.649Z,36.35
2022-12-31T21:53:23.448Z,39.83
2022-12-31T21:56:11.654Z,38.60
2022-12-31T21:58:41.924Z,35.78
2022-12-31T22:01:34.239Z,40.83
2022-12-31T22:04:04.034Z,44.03
2022-12-31T22:06:33.566Z,41.55
2022-12-31T22:09:01.633Z,52.58
2022-12-31T22:11:30.208Z,47.83
2022-12-31T22:13:58.521Z,56.88
2022-12-31T22:16:26.626Z,59.88
2022-12-31T22:18:56.676Z,60.63
2022-12-31T22:21:26.782Z,56.30
2022-12-31T22:23:56.184Z,54.83
2022-12-31T22:26:26.822Z,51.75
2022-12-31T22:28:59.191Z,55.47
2022-12-31T22:31:30.291Z,56.38
2022-12-31T22:33:59.066Z,49.70
2022-12-31T22:36:28.858Z,54.70
2022-12-31T22:39:01.253Z,55.88
2022-12-31T22:41:29.640Z,54.15
2022-12-31T22:44:04.078Z,58.58
2022-12-31T22:46:33.233Z,58.15
2022-12-31T22:49:02.418Z,63.70
2022-12-31T22:51:55.060Z,61.03
2022-12-31T22:54:21.021Z,59.03
2022-12-31T22:56:49.318Z,53.55
2022-12-31T22:59:17.541Z,55.13
2022-12-31T23:01:45.873Z,56.40
2022-12-31T23:04:14.068Z,48.28
2022-12-31T23:06:44.676Z,56.20
2022-12-31T23:09:30.962Z,44.40
2022-12-31T23:11:59.483Z,49.13
2022-12-31T23:14:44.877Z,36.72
2022-12-31T23:17:34.858Z,16.38
2022-12-31T23:20:20.515Z,10.68
2022-12-31T23:23:09.974Z,6.25
2022-12-31T23:25:41.199Z,3.95
2022-12-31T23:28:13.042Z,2.33
2022-12-31T23:30:41.948Z,1.88
2022-12-31T23:33:15.716Z,2.20
2022-12-31T23:35:44.113Z,2.45
2022-12-31T23:38:16.801Z,2.90
2022-12-31T23:40:45.781Z,1.65
2022-12-31T23:43:21.733Z,2.45
2022-12-31T23:45:50.562Z,4.25
2022-12-31T23:48:18.688Z,2.85
2022-12-31T23:50:52.933Z,3.00
2022-12-31T23:53:23.785Z,1.13
2022-12-31T23:55:52.326Z,3.47
2022-12-31T23:58:21.158Z,4.03
